Aviation Digital Data Service (ADDS)

Output produced by METARs form (0436 UTC 19 February 2019)
found at http://www.aviationweather.gov/metar/data/
 
METAR text: HEBL 190400Z 00000KT CAVOK 09/04 Q1020 NOSIG
Conditions at: HEBL (ABU SIMBEL (RUIN, EG) observed 0400 UTC 19 February 2019
Temperature: 9.0°C (48°F)
Dewpoint: 4.0°C (39°F) [RH = 71%]
Pressure (altimeter): 30.12 inches Hg (1020.0 mb)
Winds: calm
Visibility: 6 or more miles (10+ km)
Ceiling: ceiling and visibility are OK
Clouds: unknown
Weather: no significant weather observed at this time

METAR text: HEBL 190300Z 34004KT CAVOK 09/M04 Q1020 NOSIG
Conditions at: HEBL (ABU SIMBEL (RUIN, EG) observed 0300 UTC 19 February 2019
Temperature: 9.0°C (48°F)
Dewpoint: -4.0°C (25°F) [RH = 40%]
Pressure (altimeter): 30.12 inches Hg (1020.0 mb)
Winds: from the NNW (340 degrees) at 5 MPH (4 knots; 2.1 m/s)
Visibility: 6 or more miles (10+ km)
Ceiling: ceiling and visibility are OK
Clouds: unknown
Weather: no significant weather observed at this time

METAR text: HEBL 190200Z 35005KT CAVOK 10/M03 Q1020 NOSIG
Conditions at: HEBL (ABU SIMBEL (RUIN, EG) observed 0200 UTC 19 February 2019
Temperature: 10.0°C (50°F)
Dewpoint: -3.0°C (27°F) [RH = 40%]
Pressure (altimeter): 30.12 inches Hg (1020.0 mb)
Winds: from the N (350 degrees) at 6 MPH (5 knots; 2.6 m/s)
Visibility: 6 or more miles (10+ km)
Ceiling: ceiling and visibility are OK
Clouds: unknown
Weather: no significant weather observed at this time

METAR text: HEBL 190100Z 36006KT CAVOK 11/M03 Q1020 NOSIG
Conditions at: HEBL (ABU SIMBEL (RUIN, EG) observed 0100 UTC 19 February 2019
Temperature: 11.0°C (52°F)
Dewpoint: -3.0°C (27°F) [RH = 37%]
Pressure (altimeter): 30.12 inches Hg (1020.0 mb)
Winds: from the N (360 degrees) at 7 MPH (6 knots; 3.1 m/s)
Visibility: 6 or more miles (10+ km)
Ceiling: ceiling and visibility are OK
Clouds: unknown
Weather: no significant weather observed at this time

METAR text: HEBL 190000Z 35006KT CAVOK 12/M03 Q1021 NOSIG
Conditions at: HEBL (ABU SIMBEL (RUIN, EG) observed 0000 UTC 19 February 2019
Temperature: 12.0°C (54°F)
Dewpoint: -3.0°C (27°F) [RH = 35%]
Pressure (altimeter): 30.15 inches Hg (1021.0 mb)
Winds: from the N (350 degrees) at 7 MPH (6 knots; 3.1 m/s)
Visibility: 6 or more miles (10+ km)
Ceiling: ceiling and visibility are OK
Clouds: unknown
Weather: no significant weather observed at this time

METAR text: HEBL 182300Z 36010KT CAVOK 12/M04 Q1020 NOSIG
Conditions at: HEBL (ABU SIMBEL (RUIN, EG) observed 2300 UTC 18 February 2019
Temperature: 12.0°C (54°F)
Dewpoint: -4.0°C (25°F) [RH = 32%]
Pressure (altimeter): 30.12 inches Hg (1020.0 mb)
Winds: from the N (360 degrees) at 12 MPH (10 knots; 5.1 m/s)
Visibility: 6 or more miles (10+ km)
Ceiling: ceiling and visibility are OK
Clouds: unknown
Weather: no significant weather observed at this time

METAR text: HEBL 182200Z 36009KT CAVOK 13/M09 Q1020 NOSIG
Conditions at: HEBL (ABU SIMBEL (RUIN, EG) observed 2200 UTC 18 February 2019
Temperature: 13.0°C (55°F)
Dewpoint: -9.0°C (16°F) [RH = 21%]
Pressure (altimeter): 30.12 inches Hg (1020.0 mb)
Winds: from the N (360 degrees) at 10 MPH (9 knots; 4.6 m/s)
Visibility: 6 or more miles (10+ km)
Ceiling: ceiling and visibility are OK
Clouds: unknown
Weather: no significant weather observed at this time

METAR text: HEBL 182100Z 35007KT CAVOK 14/M05 Q1021 NOSIG
Conditions at: HEBL (ABU SIMBEL (RUIN, EG) observed 2100 UTC 18 February 2019
Temperature: 14.0°C (57°F)
Dewpoint: -5.0°C (23°F) [RH = 26%]
Pressure (altimeter): 30.15 inches Hg (1021.0 mb)
Winds: from the N (350 degrees) at 8 MPH (7 knots; 3.6 m/s)
Visibility: 6 or more miles (10+ km)
Ceiling: ceiling and visibility are OK
Clouds: unknown
Weather: no significant weather observed at this time

METAR text: HEBL 182000Z 33008KT CAVOK 15/M06 Q1021 NOSIG
Conditions at: HEBL (ABU SIMBEL (RUIN, EG) observed 2000 UTC 18 February 2019
Temperature: 15.0°C (59°F)
Dewpoint: -6.0°C (21°F) [RH = 23%]
Pressure (altimeter): 30.15 inches Hg (1021.0 mb)
Winds: from the NNW (330 degrees) at 9 MPH (8 knots; 4.1 m/s)
Visibility: 6 or more miles (10+ km)
Ceiling: ceiling and visibility are OK
Clouds: unknown
Weather: no significant weather observed at this time

METAR text: HEBL 181900Z 33009KT CAVOK 16/M06 Q1020 NOSIG
Conditions at: HEBL (ABU SIMBEL (RUIN, EG) observed 1900 UTC 18 February 2019
Temperature: 16.0°C (61°F)
Dewpoint: -6.0°C (21°F) [RH = 21%]
Pressure (altimeter): 30.12 inches Hg (1020.0 mb)
Winds: from the NNW (330 degrees) at 10 MPH (9 knots; 4.6 m/s)
Visibility: 6 or more miles (10+ km)
Ceiling: ceiling and visibility are OK
Clouds: unknown
Weather: no significant weather observed at this time

METAR text: HEBL 181800Z 33007KT CAVOK 17/M05 Q1020 NOSIG
Conditions at: HEBL (ABU SIMBEL (RUIN, EG) observed 1800 UTC 18 February 2019
Temperature: 17.0°C (63°F)
Dewpoint: -5.0°C (23°F) [RH = 22%]
Pressure (altimeter): 30.12 inches Hg (1020.0 mb)
Winds: from the NNW (330 degrees) at 8 MPH (7 knots; 3.6 m/s)
Visibility: 6 or more miles (10+ km)
Ceiling: ceiling and visibility are OK
Clouds: unknown
Weather: no significant weather observed at this time

METAR text: HEBL 181700Z 32010KT CAVOK 18/M02 Q1019 NOSIG
Conditions at: HEBL (ABU SIMBEL (RUIN, EG) observed 1700 UTC 18 February 2019
Temperature: 18.0°C (64°F)
Dewpoint: -2.0°C (28°F) [RH = 26%]
Pressure (altimeter): 30.09 inches Hg (1019.0 mb)
Winds: from the NW (320 degrees) at 12 MPH (10 knots; 5.1 m/s)
Visibility: 6 or more miles (10+ km)
Ceiling: ceiling and visibility are OK
Clouds: unknown
Weather: no significant weather observed at this time

METAR text: HEBL 181600Z 31011KT CAVOK 20/M02 Q1019 NOSIG
Conditions at: HEBL (ABU SIMBEL (RUIN, EG) observed 1600 UTC 18 February 2019
Temperature: 20.0°C (68°F)
Dewpoint: -2.0°C (28°F) [RH = 23%]
Pressure (altimeter): 30.09 inches Hg (1019.0 mb)
Winds: from the NW (310 degrees) at 13 MPH (11 knots; 5.7 m/s)
Visibility: 6 or more miles (10+ km)
Ceiling: ceiling and visibility are OK
Clouds: unknown
Weather: no significant weather observed at this time

METAR text: HEBL 181500Z 29010KT CAVOK 21/M03 Q1018 NOSIG
Conditions at: HEBL (ABU SIMBEL (RUIN, EG) observed 1500 UTC 18 February 2019
Temperature: 21.0°C (70°F)
Dewpoint: -3.0°C (27°F) [RH = 20%]
Pressure (altimeter): 30.06 inches Hg (1018.0 mb)
Winds: from the WNW (290 degrees) at 12 MPH (10 knots; 5.1 m/s)
Visibility: 6 or more miles (10+ km)
Ceiling: ceiling and visibility are OK
Clouds: unknown
Weather: no significant weather observed at this time

METAR text: HEBL 181400Z 36009KT CAVOK 23/M03 Q1018 NOSIG
Conditions at: HEBL (ABU SIMBEL (RUIN, EG) observed 1400 UTC 18 February 2019
Temperature: 23.0°C (73°F)
Dewpoint: -3.0°C (27°F) [RH = 17%]
Pressure (altimeter): 30.06 inches Hg (1018.0 mb)
Winds: from the N (360 degrees) at 10 MPH (9 knots; 4.6 m/s)
Visibility: 6 or more miles (10+ km)
Ceiling: ceiling and visibility are OK
Clouds: unknown
Weather: no significant weather observed at this time

METAR text: HEBL 181300Z 34008KT CAVOK 23/M04 Q1018 NOSIG
Conditions at: HEBL (ABU SIMBEL (RUIN, EG) observed 1300 UTC 18 February 2019
Temperature: 23.0°C (73°F)
Dewpoint: -4.0°C (25°F) [RH = 16%]
Pressure (altimeter): 30.06 inches Hg (1018.0 mb)
Winds: from the NNW (340 degrees) at 9 MPH (8 knots; 4.1 m/s)
Visibility: 6 or more miles (10+ km)
Ceiling: ceiling and visibility are OK
Clouds: unknown
Weather: no significant weather observed at this time

METAR text: HEBL 181200Z 33007KT CAVOK 22/M03 Q1019 NOSIG
Conditions at: HEBL (ABU SIMBEL (RUIN, EG) observed 1200 UTC 18 February 2019
Temperature: 22.0°C (72°F)
Dewpoint: -3.0°C (27°F) [RH = 19%]
Pressure (altimeter): 30.09 inches Hg (1019.0 mb)
Winds: from the NNW (330 degrees) at 8 MPH (7 knots; 3.6 m/s)
Visibility: 6 or more miles (10+ km)
Ceiling: ceiling and visibility are OK
Clouds: unknown
Weather: no significant weather observed at this time

METAR text: HEBL 181100Z 35009KT CAVOK 21/M01 Q1019 NOSIG
Conditions at: HEBL (ABU SIMBEL (RUIN, EG) observed 1100 UTC 18 February 2019
Temperature: 21.0°C (70°F)
Dewpoint: -1.0°C (30°F) [RH = 23%]
Pressure (altimeter): 30.09 inches Hg (1019.0 mb)
Winds: from the N (350 degrees) at 10 MPH (9 knots; 4.6 m/s)
Visibility: 6 or more miles (10+ km)
Ceiling: ceiling and visibility are OK
Clouds: unknown
Weather: no significant weather observed at this time

METAR text: HEBL 181000Z 05006KT CAVOK 20/01 Q1020 NOSIG
Conditions at: HEBL (ABU SIMBEL (RUIN, EG) observed 1000 UTC 18 February 2019
Temperature: 20.0°C (68°F)
Dewpoint: 1.0°C (34°F) [RH = 28%]
Pressure (altimeter): 30.12 inches Hg (1020.0 mb)
Winds: from the NE (50 degrees) at 7 MPH (6 knots; 3.1 m/s)
Visibility: 6 or more miles (10+ km)
Ceiling: ceiling and visibility are OK
Clouds: unknown
Weather: no significant weather observed at this time

METAR text: HEBL 180900Z 08006KT CAVOK 19/02 Q1021 NOSIG
Conditions at: HEBL (ABU SIMBEL (RUIN, EG) observed 0900 UTC 18 February 2019
Temperature: 19.0°C (66°F)
Dewpoint: 2.0°C (36°F) [RH = 32%]
Pressure (altimeter): 30.15 inches Hg (1021.0 mb)
Winds: from the E (80 degrees) at 7 MPH (6 knots; 3.1 m/s)
Visibility: 6 or more miles (10+ km)
Ceiling: ceiling and visibility are OK
Clouds: unknown
Weather: no significant weather observed at this time

METAR text: HEBL 180800Z 06007KT CAVOK 18/04 Q1021 NOSIG
Conditions at: HEBL (ABU SIMBEL (RUIN, EG) observed 0800 UTC 18 February 2019
Temperature: 18.0°C (64°F)
Dewpoint: 4.0°C (39°F) [RH = 39%]
Pressure (altimeter): 30.15 inches Hg (1021.0 mb)
Winds: from the ENE (60 degrees) at 8 MPH (7 knots; 3.6 m/s)
Visibility: 6 or more miles (10+ km)
Ceiling: ceiling and visibility are OK
Clouds: unknown
Weather: no significant weather observed at this time

METAR text: HEBL 180700Z 05003KT CAVOK 17/03 Q1021 NOSIG
Conditions at: HEBL (ABU SIMBEL (RUIN, EG) observed 0700 UTC 18 February 2019
Temperature: 17.0°C (63°F)
Dewpoint: 3.0°C (37°F) [RH = 39%]
Pressure (altimeter): 30.15 inches Hg (1021.0 mb)
Winds: from the NE (50 degrees) at 3 MPH (3 knots; 1.5 m/s)
Visibility: 6 or more miles (10+ km)
Ceiling: ceiling and visibility are OK
Clouds: unknown
Weather: no significant weather observed at this time

METAR text: HEBL 180600Z 00000KT CAVOK 12/M01 Q1021 NOSIG
Conditions at: HEBL (ABU SIMBEL (RUIN, EG) observed 0600 UTC 18 February 2019
Temperature: 12.0°C (54°F)
Dewpoint: -1.0°C (30°F) [RH = 40%]
Pressure (altimeter): 30.15 inches Hg (1021.0 mb)
Winds: calm
Visibility: 6 or more miles (10+ km)
Ceiling: ceiling and visibility are OK
Clouds: unknown
Weather: no significant weather observed at this time

METAR text: HEBL 180500Z 34004KT CAVOK 12/M03 Q1020 NOSIG
Conditions at: HEBL (ABU SIMBEL (RUIN, EG) observed 0500 UTC 18 February 2019
Temperature: 12.0°C (54°F)
Dewpoint: -3.0°C (27°F) [RH = 35%]
Pressure (altimeter): 30.12 inches Hg (1020.0 mb)
Winds: from the NNW (340 degrees) at 5 MPH (4 knots; 2.1 m/s)
Visibility: 6 or more miles (10+ km)
Ceiling: ceiling and visibility are OK
Clouds: unknown
Weather: no significant weather observed at this time

METAR text: HEBL 180400Z 35005KT CAVOK 10/M04 Q1019 NOSIG
Conditions at: HEBL (ABU SIMBEL (RUIN, EG) observed 0400 UTC 18 February 2019
Temperature: 10.0°C (50°F)
Dewpoint: -4.0°C (25°F) [RH = 37%]
Pressure (altimeter): 30.09 inches Hg (1019.0 mb)
Winds: from the N (350 degrees) at 6 MPH (5 knots; 2.6 m/s)
Visibility: 6 or more miles (10+ km)
Ceiling: ceiling and visibility are OK
Clouds: unknown
Weather: no significant weather observed at this time

METAR text: HEBL 180300Z 35004KT CAVOK 10/M04 Q1019 NOSIG
Conditions at: HEBL (ABU SIMBEL (RUIN, EG) observed 0300 UTC 18 February 2019
Temperature: 10.0°C (50°F)
Dewpoint: -4.0°C (25°F) [RH = 37%]
Pressure (altimeter): 30.09 inches Hg (1019.0 mb)
Winds: from the N (350 degrees) at 5 MPH (4 knots; 2.1 m/s)
Visibility: 6 or more miles (10+ km)
Ceiling: ceiling and visibility are OK
Clouds: unknown
Weather: no significant weather observed at this time

METAR text: HEBL 180200Z 32006KT CAVOK 10/M04 Q1019 NOSIG
Conditions at: HEBL (ABU SIMBEL (RUIN, EG) observed 0200 UTC 18 February 2019
Temperature: 10.0°C (50°F)
Dewpoint: -4.0°C (25°F) [RH = 37%]
Pressure (altimeter): 30.09 inches Hg (1019.0 mb)
Winds: from the NW (320 degrees) at 7 MPH (6 knots; 3.1 m/s)
Visibility: 6 or more miles (10+ km)
Ceiling: ceiling and visibility are OK
Clouds: unknown
Weather: no significant weather observed at this time

METAR text: HEBL 180100Z 33007KT CAVOK 11/M04 Q1019 NOSIG
Conditions at: HEBL (ABU SIMBEL (RUIN, EG) observed 0100 UTC 18 February 2019
Temperature: 11.0°C (52°F)
Dewpoint: -4.0°C (25°F) [RH = 35%]
Pressure (altimeter): 30.09 inches Hg (1019.0 mb)
Winds: from the NNW (330 degrees) at 8 MPH (7 knots; 3.6 m/s)
Visibility: 6 or more miles (10+ km)
Ceiling: ceiling and visibility are OK
Clouds: unknown
Weather: no significant weather observed at this time

METAR text: HEBL 180000Z 32008KT CAVOK 11/M04 Q1020 NOSIG
Conditions at: HEBL (ABU SIMBEL (RUIN, EG) observed 0000 UTC 18 February 2019
Temperature: 11.0°C (52°F)
Dewpoint: -4.0°C (25°F) [RH = 35%]
Pressure (altimeter): 30.12 inches Hg (1020.0 mb)
Winds: from the NW (320 degrees) at 9 MPH (8 knots; 4.1 m/s)
Visibility: 6 or more miles (10+ km)
Ceiling: ceiling and visibility are OK
Clouds: unknown
Weather: no significant weather observed at this time

METAR text: HEBL 172300Z 33005KT CAVOK 12/M03 Q1021 NOSIG
Conditions at: HEBL (ABU SIMBEL (RUIN, EG) observed 2300 UTC 17 February 2019
Temperature: 12.0°C (54°F)
Dewpoint: -3.0°C (27°F) [RH = 35%]
Pressure (altimeter): 30.15 inches Hg (1021.0 mb)
Winds: from the NNW (330 degrees) at 6 MPH (5 knots; 2.6 m/s)
Visibility: 6 or more miles (10+ km)
Ceiling: ceiling and visibility are OK
Clouds: unknown
Weather: no significant weather observed at this time

METAR text: HEBL 172200Z 33005KT CAVOK 13/M03 Q1021 NOSIG
Conditions at: HEBL (ABU SIMBEL (RUIN, EG) observed 2200 UTC 17 February 2019
Temperature: 13.0°C (55°F)
Dewpoint: -3.0°C (27°F) [RH = 33%]
Pressure (altimeter): 30.15 inches Hg (1021.0 mb)
Winds: from the NNW (330 degrees) at 6 MPH (5 knots; 2.6 m/s)
Visibility: 6 or more miles (10+ km)
Ceiling: ceiling and visibility are OK
Clouds: unknown
Weather: no significant weather observed at this time

METAR text: HEBL 172100Z 32006KT CAVOK 14/M04 Q1021 NOSIG
Conditions at: HEBL (ABU SIMBEL (RUIN, EG) observed 2100 UTC 17 February 2019
Temperature: 14.0°C (57°F)
Dewpoint: -4.0°C (25°F) [RH = 28%]
Pressure (altimeter): 30.15 inches Hg (1021.0 mb)
Winds: from the NW (320 degrees) at 7 MPH (6 knots; 3.1 m/s)
Visibility: 6 or more miles (10+ km)
Ceiling: ceiling and visibility are OK
Clouds: unknown
Weather: no significant weather observed at this time

METAR text: HEBL 172000Z 33007KT CAVOK 15/M04 Q1020 NOSIG
Conditions at: HEBL (ABU SIMBEL (RUIN, EG) observed 2000 UTC 17 February 2019
Temperature: 15.0°C (59°F)
Dewpoint: -4.0°C (25°F) [RH = 27%]
Pressure (altimeter): 30.12 inches Hg (1020.0 mb)
Winds: from the NNW (330 degrees) at 8 MPH (7 knots; 3.6 m/s)
Visibility: 6 or more miles (10+ km)
Ceiling: ceiling and visibility are OK
Clouds: unknown
Weather: no significant weather observed at this time

METAR text: HEBL 171900Z 33005KT CAVOK 16/M03 Q1020 NOSIG
Conditions at: HEBL (ABU SIMBEL (RUIN, EG) observed 1900 UTC 17 February 2019
Temperature: 16.0°C (61°F)
Dewpoint: -3.0°C (27°F) [RH = 27%]
Pressure (altimeter): 30.12 inches Hg (1020.0 mb)
Winds: from the NNW (330 degrees) at 6 MPH (5 knots; 2.6 m/s)
Visibility: 6 or more miles (10+ km)
Ceiling: ceiling and visibility are OK
Clouds: unknown
Weather: no significant weather observed at this time

METAR text: HEBL 171800Z 33006KT CAVOK 17/M02 Q1020 NOSIG
Conditions at: HEBL (ABU SIMBEL (RUIN, EG) observed 1800 UTC 17 February 2019
Temperature: 17.0°C (63°F)
Dewpoint: -2.0°C (28°F) [RH = 27%]
Pressure (altimeter): 30.12 inches Hg (1020.0 mb)
Winds: from the NNW (330 degrees) at 7 MPH (6 knots; 3.1 m/s)
Visibility: 6 or more miles (10+ km)
Ceiling: ceiling and visibility are OK
Clouds: unknown
Weather: no significant weather observed at this time

METAR text: HEBL 171700Z 01005KT CAVOK 18/M00 Q1019 NOSIG
Conditions at: HEBL (ABU SIMBEL (RUIN, EG) observed 1700 UTC 17 February 2019
Temperature: 18.0°C (64°F)
Dewpoint: 0.0°C (32°F) [RH = 30%]
Pressure (altimeter): 30.09 inches Hg (1019.0 mb)
Winds: from the N (10 degrees) at 6 MPH (5 knots; 2.6 m/s)
Visibility: 6 or more miles (10+ km)
Ceiling: ceiling and visibility are OK
Clouds: unknown
Weather: no significant weather observed at this time

Forecast for: HEBL (ABU SIMBEL (RUIN, EG)
Text: TAF HEBL 182300Z 1900/2006 35012KT CAVOK
Forecast period: 0000 UTC 19 February 2019 to 0600 UTC 20 February 2019
Forecast type: FROM: standard forecast or significant change
Winds: from the N (350 degrees) at 14 MPH (12 knots; 6.2 m/s)
Visibility: 6 or more miles 10+ km)
Ceiling: unknown
Clouds: missing
Weather: NSW  (no significant weather)